North Beach, Maryland
Current Conditions -  °F | °C
As of 7:54 PM on Friday 19 Dec 2014 (Local Time) from KNAK Reporting Station
Clear Clear  
Wind Chill: 31°   Ceiling: Unl
Heat Index: 37°   Visibility: 10mi
Dew Point: 24°   Wind: 8mph
Humidity: 59%   Direction: 300°WNW
Pressure: 30.21"   Gusts: NA
Location:  38.71°N, 76.53°W
Report Text: KNAK 200054Z AUTO 30007KT 10SM CLR 03/M04 A3021 RMK AO2 SLP232 T00281044
Loading
Personal Weather Stations






























Interactive Weather Map New forecast layout! Learn more

10-Day Weather Forecast

Advertisements
Track Severe Weather on mobile